createdAt,value
2018-02-24T00:00:59.238Z,84.20
2018-02-24T00:03:25.798Z,83.50
2018-02-24T00:05:52.693Z,83.70
2018-02-24T00:08:19.261Z,83.70
2018-02-24T00:10:45.837Z,84.00
2018-02-24T00:13:12.737Z,84.20
2018-02-24T00:15:39.297Z,84.20
2018-02-24T00:18:05.858Z,83.90
2018-02-24T00:20:32.405Z,84.00
2018-02-24T00:22:58.975Z,83.80
2018-02-24T00:25:25.529Z,83.70
2018-02-24T00:27:52.057Z,83.90
2018-02-24T00:30:18.619Z,83.70
2018-02-24T00:32:45.558Z,84.10
2018-02-24T00:35:12.086Z,84.10
2018-02-24T00:37:38.650Z,83.90
2018-02-24T00:40:05.209Z,84.20
2018-02-24T00:42:31.736Z,84.20
2018-02-24T00:44:58.298Z,84.00
2018-02-24T00:47:24.858Z,83.80
2018-02-24T00:49:51.438Z,84.10
2018-02-24T00:52:18.006Z,84.50
2018-02-24T00:54:44.581Z,84.20
2018-02-24T00:57:11.221Z,84.20
2018-02-24T00:59:37.785Z,84.40
2018-02-24T01:02:04.393Z,84.80
2018-02-24T01:04:30.973Z,84.40
2018-02-24T01:06:57.546Z,84.40
2018-02-24T01:09:24.473Z,84.60
2018-02-24T01:11:51.013Z,84.60
2018-02-24T01:14:17.574Z,84.50
2018-02-24T01:16:44.149Z,84.50
2018-02-24T01:19:11.081Z,84.70
2018-02-24T01:21:37.642Z,84.70
2018-02-24T01:24:04.214Z,84.60
2018-02-24T01:26:30.737Z,84.40
2018-02-24T01:28:57.344Z,85.00
2018-02-24T01:31:23.909Z,84.60
2018-02-24T01:33:50.441Z,84.60
2018-02-24T01:36:17.013Z,84.60
2018-02-24T01:38:43.577Z,84.90
2018-02-24T01:41:10.106Z,84.50
2018-02-24T01:43:36.674Z,84.50
2018-02-24T01:46:03.243Z,84.80
2018-02-24T01:48:29.801Z,84.40
2018-02-24T01:50:56.367Z,84.00
2018-02-24T01:53:22.929Z,84.20
2018-02-24T01:55:49.462Z,84.50
2018-02-24T01:58:16.049Z,84.10
2018-02-24T02:00:42.949Z,84.20
2018-02-24T02:03:09.481Z,84.00
2018-02-24T02:05:36.065Z,83.70
2018-02-24T02:08:02.669Z,83.90
2018-02-24T02:10:29.213Z,84.10
2018-02-24T02:12:56.153Z,83.60
2018-02-24T02:15:22.709Z,83.60
2018-02-24T02:17:49.609Z,83.20
2018-02-24T02:20:16.209Z,83.20
2018-02-24T02:22:43.132Z,83.00
2018-02-24T02:25:09.662Z,83.00
2018-02-24T02:27:36.225Z,83.00
2018-02-24T02:30:02.863Z,83.30
2018-02-24T02:32:29.398Z,83.10
2018-02-24T02:34:55.954Z,83.00
2018-02-24T02:37:22.510Z,83.10
2018-02-24T02:39:49.042Z,83.40
2018-02-24T02:42:15.602Z,83.00
2018-02-24T02:44:42.171Z,82.70
2018-02-24T02:47:08.701Z,82.50
2018-02-24T02:49:35.263Z,82.90
2018-02-24T02:52:01.841Z,83.10
2018-02-24T02:54:28.741Z,83.00
2018-02-24T02:56:55.311Z,83.00
2018-02-24T02:59:21.910Z,83.30
2018-02-24T03:01:48.461Z,83.40
2018-02-24T03:04:15.018Z,83.10
2018-02-24T03:06:41.581Z,83.00
2018-02-24T03:09:08.157Z,83.20
2018-02-24T03:11:34.721Z,83.20
2018-02-24T03:14:01.654Z,83.60
2018-02-24T03:16:28.191Z,83.60
2018-02-24T03:18:54.761Z,83.30
2018-02-24T03:21:21.317Z,83.70
2018-02-24T03:23:48.216Z,83.50
2018-02-24T03:26:14.769Z,83.50
2018-02-24T03:28:41.334Z,83.60
2018-02-24T03:31:07.883Z,83.60
2018-02-24T03:33:34.449Z,83.50
2018-02-24T03:36:01.014Z,83.40
2018-02-24T03:38:27.917Z,83.60
2018-02-24T03:40:54.481Z,83.60
2018-02-24T03:43:21.041Z,83.50
2018-02-24T03:45:51.501Z,83.70
2018-02-24T03:48:18.432Z,84.00
2018-02-24T03:50:45.038Z,84.00
2018-02-24T03:53:11.617Z,83.70
2018-02-24T03:55:38.216Z,83.80
2018-02-24T03:58:05.177Z,83.70
2018-02-24T04:00:32.065Z,83.80
2018-02-24T04:02:58.625Z,83.80
2018-02-24T04:05:25.637Z,84.10
2018-02-24T04:07:52.530Z,84.10
2018-02-24T04:10:19.098Z,84.10
2018-02-24T04:12:45.657Z,84.20
2018-02-24T04:15:12.226Z,83.90
2018-02-24T04:17:39.153Z,84.10
2018-02-24T04:20:05.734Z,84.00
2018-02-24T04:22:32.629Z,84.20
2018-02-24T04:24:59.205Z,84.20
2018-02-24T04:27:25.762Z,84.40
2018-02-24T04:29:52.285Z,84.00
2018-02-24T04:32:18.853Z,84.10
2018-02-24T04:34:45.422Z,84.60
2018-02-24T04:37:12.316Z,84.00
2018-02-24T04:39:38.866Z,84.00
2018-02-24T04:42:05.455Z,84.20
2018-02-24T04:44:32.031Z,84.00
2018-02-24T04:46:58.942Z,84.10
2018-02-24T04:49:25.497Z,84.10
2018-02-24T04:51:52.046Z,84.10
2018-02-24T04:54:18.617Z,84.10
2018-02-24T04:56:45.541Z,84.10
2018-02-24T04:59:12.190Z,84.00
2018-02-24T05:01:38.759Z,84.10
2018-02-24T05:04:05.690Z,84.20
2018-02-24T05:06:32.217Z,84.20
2018-02-24T05:08:58.789Z,83.90
2018-02-24T05:11:25.345Z,83.90
2018-02-24T05:13:51.869Z,83.80
2018-02-24T05:16:18.429Z,84.00
2018-02-24T05:18:44.990Z,83.50
2018-02-24T05:21:11.514Z,83.80
2018-02-24T05:23:38.087Z,83.80
2018-02-24T05:26:04.646Z,83.50
2018-02-24T05:28:31.555Z,83.50
2018-02-24T05:30:58.125Z,83.50
2018-02-24T05:33:25.080Z,83.50
2018-02-24T05:35:51.602Z,83.50
2018-02-24T05:38:18.159Z,83.50
2018-02-24T05:40:44.718Z,83.70
2018-02-24T05:43:11.249Z,83.70
2018-02-24T05:45:37.808Z,83.80
2018-02-24T05:48:04.364Z,84.00
2018-02-24T05:50:30.885Z,84.20
2018-02-24T05:52:57.717Z,84.20
2018-02-24T05:55:24.302Z,84.30
2018-02-24T05:57:50.876Z,83.70
2018-02-24T06:00:17.513Z,83.60
2018-02-24T06:02:44.081Z,83.50
2018-02-24T06:05:10.992Z,83.40
2018-02-24T06:07:37.552Z,83.40
2018-02-24T06:10:04.116Z,83.50
2018-02-24T06:12:30.649Z,83.50
2018-02-24T06:14:57.242Z,83.40
2018-02-24T06:17:23.833Z,83.20
2018-02-24T06:19:50.373Z,83.10
2018-02-24T06:22:17.013Z,83.50
2018-02-24T06:24:43.585Z,83.70
2018-02-24T06:27:10.166Z,83.40
2018-02-24T06:29:37.157Z,83.30
2018-02-24T06:32:03.790Z,83.30
2018-02-24T06:34:30.365Z,83.30
2018-02-24T06:36:56.926Z,83.20
2018-02-24T06:39:23.538Z,82.90
2018-02-24T06:41:50.099Z,83.20
2018-02-24T06:44:16.674Z,83.30
2018-02-24T06:46:43.279Z,82.70
2018-02-24T06:49:09.811Z,83.10
2018-02-24T06:51:36.742Z,82.80
2018-02-24T06:54:03.305Z,82.80
2018-02-24T06:56:30.209Z,83.00
2018-02-24T06:58:56.797Z,83.00
2018-02-24T07:01:23.364Z,82.70
2018-02-24T07:03:50.275Z,82.80
2018-02-24T07:06:16.838Z,82.80
2018-02-24T07:08:43.402Z,82.40
2018-02-24T07:11:10.303Z,82.60
2018-02-24T07:13:36.871Z,82.60
2018-02-24T07:16:03.434Z,82.10
2018-02-24T07:18:29.968Z,82.40
2018-02-24T07:20:56.538Z,82.40
2018-02-24T07:23:23.101Z,82.60
2018-02-24T07:25:50.002Z,81.80
2018-02-24T07:28:16.626Z,81.70
2018-02-24T07:30:43.212Z,81.80
2018-02-24T07:33:09.745Z,81.90
2018-02-24T07:35:36.682Z,81.30
2018-02-24T07:38:03.270Z,81.50
2018-02-24T07:40:29.846Z,81.20
2018-02-24T07:42:56.394Z,81.20
2018-02-24T07:45:23.338Z,81.00
2018-02-24T07:47:49.864Z,81.00
2018-02-24T07:50:16.429Z,80.80
2018-02-24T07:52:43.014Z,80.90
2018-02-24T07:55:09.549Z,81.10
2018-02-24T07:57:36.476Z,80.70
2018-02-24T08:00:03.101Z,80.80
2018-02-24T08:02:29.726Z,80.50
2018-02-24T08:04:56.289Z,80.40
2018-02-24T08:07:22.861Z,79.40
2018-02-24T08:09:49.402Z,79.20
2018-02-24T08:12:15.971Z,79.30
2018-02-24T08:14:42.538Z,78.50
2018-02-24T08:17:09.442Z,77.20
2018-02-24T08:19:36.029Z,77.20
2018-02-24T08:22:02.965Z,77.00
2018-02-24T08:24:29.518Z,77.00
2018-02-24T08:26:56.130Z,77.00
2018-02-24T08:29:22.840Z,76.50
2018-02-24T08:31:49.762Z,75.50
2018-02-24T08:34:16.338Z,75.50
2018-02-24T08:36:43.278Z,75.10
2018-02-24T08:39:09.809Z,75.10
2018-02-24T08:41:36.422Z,74.60
2018-02-24T08:44:02.984Z,74.40
2018-02-24T08:46:29.510Z,73.80
2018-02-24T08:48:56.078Z,74.50
2018-02-24T08:51:22.652Z,74.40
2018-02-24T08:53:49.221Z,73.10
2018-02-24T08:56:16.150Z,72.70
2018-02-24T08:58:42.750Z,72.70
2018-02-24T09:01:09.314Z,72.60
2018-02-24T09:03:35.942Z,72.30
2018-02-24T09:06:02.889Z,72.90
2018-02-24T09:08:29.785Z,72.10
2018-02-24T09:10:56.350Z,72.10
2018-02-24T09:13:22.926Z,71.80
2018-02-24T09:15:49.838Z,71.80
2018-02-24T09:18:16.394Z,71.80
2018-02-24T09:20:42.958Z,72.60
2018-02-24T09:23:09.489Z,72.20
2018-02-24T09:25:36.056Z,71.00
2018-02-24T09:28:02.654Z,70.70
2018-02-24T09:30:29.189Z,70.60
2018-02-24T09:32:56.118Z,69.60
2018-02-24T09:35:22.677Z,69.60
2018-02-24T09:37:49.587Z,67.50
2018-02-24T09:40:16.141Z,67.50
2018-02-24T09:42:42.718Z,67.30
2018-02-24T09:45:09.277Z,66.30
2018-02-24T09:47:35.850Z,66.30
2018-02-24T09:50:02.432Z,66.30
2018-02-24T09:52:28.961Z,66.30
2018-02-24T09:54:55.513Z,66.10
2018-02-24T09:57:22.086Z,66.10
2018-02-24T09:59:48.704Z,65.50
2018-02-24T10:02:15.277Z,65.70
2018-02-24T10:04:41.845Z,64.70
2018-02-24T10:07:08.749Z,65.10
2018-02-24T10:09:35.306Z,65.10
2018-02-24T10:12:01.861Z,65.00
2018-02-24T10:14:28.389Z,65.10
2018-02-24T10:16:54.936Z,65.00
2018-02-24T10:19:21.497Z,64.70
2018-02-24T10:21:48.114Z,64.50
2018-02-24T10:24:14.675Z,63.50
2018-02-24T10:26:41.247Z,63.50
2018-02-24T10:29:14.892Z,64.90
2018-02-24T10:31:41.830Z,64.60
2018-02-24T10:34:08.370Z,64.60
2018-02-24T10:36:34.938Z,65.10
2018-02-24T10:39:01.510Z,64.00
2018-02-24T10:41:28.415Z,64.00
2018-02-24T10:43:54.982Z,64.00
2018-02-24T10:46:21.549Z,63.90
2018-02-24T10:48:48.554Z,63.60
2018-02-24T10:51:15.166Z,63.60
2018-02-24T10:53:42.101Z,62.90
2018-02-24T10:56:08.931Z,62.90
2018-02-24T10:58:35.520Z,63.40
2018-02-24T11:01:02.654Z,62.20
2018-02-24T11:03:29.191Z,62.20
2018-02-24T11:05:55.831Z,62.50
2018-02-24T11:08:22.580Z,62.70
2018-02-24T11:10:49.492Z,62.80
2018-02-24T11:13:16.102Z,61.40
2018-02-24T11:15:42.736Z,61.00
2018-02-24T11:18:09.345Z,59.20
2018-02-24T11:20:36.024Z,62.60
2018-02-24T11:23:02.670Z,61.30
2018-02-24T11:25:29.337Z,61.30
2018-02-24T11:27:55.987Z,60.40
2018-02-24T11:30:22.603Z,61.40
2018-02-24T11:32:49.133Z,59.90
2018-02-24T11:35:15.696Z,60.10
2018-02-24T11:37:42.294Z,60.50
2018-02-24T11:40:08.842Z,59.30
2018-02-24T11:42:35.462Z,60.30
2018-02-24T11:45:02.026Z,59.90
2018-02-24T11:47:28.584Z,59.50
2018-02-24T11:49:55.146Z,58.80
2018-02-24T11:52:22.104Z,57.90
2018-02-24T11:54:49.007Z,58.20
2018-02-24T11:57:15.698Z,58.20
2018-02-24T11:59:42.313Z,57.00
2018-02-24T12:02:08.851Z,58.30
2018-02-24T12:04:35.419Z,58.00
2018-02-24T12:07:01.990Z,57.60
2018-02-24T12:09:28.582Z,57.60
2018-02-24T12:11:55.197Z,58.10
2018-02-24T12:14:22.129Z,57.10
2018-02-24T12:16:48.653Z,57.10
2018-02-24T12:19:15.225Z,56.30
2018-02-24T12:21:42.202Z,55.70
2018-02-24T12:24:09.142Z,54.90
2018-02-24T12:26:35.719Z,54.90
2018-02-24T12:29:02.294Z,54.50
2018-02-24T12:31:28.857Z,53.70
2018-02-24T12:33:55.418Z,55.60
2018-02-24T12:36:21.990Z,55.00
2018-02-24T12:38:48.570Z,54.20
2018-02-24T12:41:15.150Z,54.10
2018-02-24T12:43:41.730Z,54.40
2018-02-24T12:46:08.638Z,53.80
2018-02-24T12:48:35.194Z,53.80
2018-02-24T12:51:01.764Z,53.40
2018-02-24T12:53:28.562Z,54.60
2018-02-24T12:55:55.519Z,54.30
2018-02-24T12:58:22.177Z,54.30
2018-02-24T13:00:55.892Z,54.10
2018-02-24T13:03:22.456Z,53.90
2018-02-24T13:05:49.007Z,53.80
2018-02-24T13:08:15.582Z,53.70
2018-02-24T13:10:42.152Z,55.10
2018-02-24T13:13:09.059Z,54.80
2018-02-24T13:15:35.626Z,54.80
2018-02-24T13:18:02.185Z,54.60
2018-02-24T13:20:28.714Z,54.70
2018-02-24T13:22:55.318Z,54.50
2018-02-24T13:25:21.948Z,54.30
2018-02-24T13:27:48.854Z,53.90
2018-02-24T13:30:15.414Z,53.90
2018-02-24T13:32:42.021Z,55.10
2018-02-24T13:35:08.557Z,54.80
2018-02-24T13:37:35.553Z,55.00
2018-02-24T13:40:02.137Z,55.00
2018-02-24T13:42:28.673Z,55.30
2018-02-24T13:44:55.235Z,55.60
2018-02-24T13:47:21.850Z,56.10
2018-02-24T13:49:48.386Z,55.60
2018-02-24T13:52:14.950Z,56.20
2018-02-24T13:54:41.514Z,56.20
2018-02-24T13:57:08.047Z,56.30
2018-02-24T13:59:34.673Z,56.50
2018-02-24T14:02:01.238Z,56.30
2018-02-24T14:04:27.774Z,56.00
2018-02-24T14:06:54.334Z,56.40
2018-02-24T14:09:20.897Z,56.40
2018-02-24T14:11:47.542Z,57.50
2018-02-24T14:14:14.097Z,57.10
2018-02-24T14:16:40.666Z,56.60
2018-02-24T14:19:07.577Z,56.50
2018-02-24T14:21:34.134Z,56.50
2018-02-24T14:24:07.654Z,56.90
2018-02-24T14:26:34.222Z,56.40
2018-02-24T14:29:01.154Z,56.40
2018-02-24T14:31:27.714Z,56.40
2018-02-24T14:33:54.289Z,56.90
2018-02-24T14:36:21.224Z,56.70
2018-02-24T14:38:47.750Z,56.70
2018-02-24T14:41:14.322Z,56.80
2018-02-24T14:43:41.252Z,56.30
2018-02-24T14:46:07.783Z,56.30
2018-02-24T14:48:34.610Z,56.60
2018-02-24T14:51:01.303Z,56.40
2018-02-24T14:53:27.850Z,56.60
2018-02-24T14:55:54.422Z,55.70
2018-02-24T14:58:21.004Z,56.50
2018-02-24T15:00:47.774Z,57.30
2018-02-24T15:03:14.350Z,56.70
2018-02-24T15:05:40.909Z,56.40
2018-02-24T15:08:07.458Z,58.20
2018-02-24T15:10:34.037Z,57.20
2018-02-24T15:13:00.649Z,57.00
2018-02-24T15:15:27.189Z,57.20
2018-02-24T15:17:53.793Z,58.20
2018-02-24T15:20:20.402Z,57.90
2018-02-24T15:22:46.950Z,58.40
2018-02-24T15:25:13.953Z,58.70
2018-02-24T15:27:40.575Z,58.70
2018-02-24T15:30:07.490Z,59.20
2018-02-24T15:32:34.110Z,59.20
2018-02-24T15:35:00.675Z,59.20
2018-02-24T15:37:27.253Z,58.70
2018-02-24T15:39:53.849Z,59.70
2018-02-24T15:42:20.430Z,59.50
2018-02-24T15:44:46.978Z,60.40
2018-02-24T15:47:13.562Z,60.50
2018-02-24T15:49:41.362Z,61.40
2018-02-24T15:52:08.811Z,61.40
2018-02-24T15:54:35.778Z,62.30
2018-02-24T15:57:02.355Z,62.30
2018-02-24T15:59:28.906Z,61.90
2018-02-24T16:01:55.533Z,62.60
2018-02-24T16:04:22.097Z,62.60
2018-02-24T16:06:48.637Z,62.40
2018-02-24T16:09:15.339Z,62.90
2018-02-24T16:11:42.146Z,63.20
2018-02-24T16:14:08.703Z,63.80
2018-02-24T16:16:35.322Z,64.20
2018-02-24T16:19:01.938Z,63.80
2018-02-24T16:21:28.850Z,64.10
2018-02-24T16:23:55.417Z,64.10
2018-02-24T16:26:22.034Z,64.20
2018-02-24T16:28:48.562Z,64.30
2018-02-24T16:31:15.143Z,64.80
2018-02-24T16:33:41.721Z,64.60
2018-02-24T16:36:08.275Z,64.60
2018-02-24T16:38:34.841Z,64.90
2018-02-24T16:41:01.786Z,65.50
2018-02-24T16:43:28.688Z,65.70
2018-02-24T16:45:55.265Z,65.70
2018-02-24T16:48:21.830Z,65.70
2018-02-24T16:50:48.362Z,66.00
2018-02-24T16:53:15.042Z,66.30
2018-02-24T16:55:41.990Z,66.40
2018-02-24T16:58:08.918Z,66.50
2018-02-24T17:00:35.518Z,66.50
2018-02-24T17:03:02.087Z,66.60
2018-02-24T17:05:35.530Z,67.30
2018-02-24T17:08:02.142Z,67.10
2018-02-24T17:10:28.661Z,67.40
2018-02-24T17:12:55.585Z,67.70
2018-02-24T17:15:22.150Z,67.70
2018-02-24T17:17:49.055Z,67.40
2018-02-24T17:20:15.616Z,67.40
2018-02-24T17:22:42.230Z,68.00
2018-02-24T17:25:08.870Z,68.50
2018-02-24T17:27:35.462Z,68.30
2018-02-24T17:30:02.025Z,68.50
2018-02-24T17:32:28.588Z,68.40
2018-02-24T17:34:55.526Z,68.40
2018-02-24T17:37:22.141Z,68.40
2018-02-24T17:39:48.673Z,68.30
2018-02-24T17:42:15.285Z,68.20
2018-02-24T17:44:48.862Z,68.10
2018-02-24T17:47:15.433Z,68.20
2018-02-24T17:49:41.998Z,67.90
2018-02-24T17:52:08.893Z,68.30
2018-02-24T17:54:35.467Z,68.30
2018-02-24T17:57:02.032Z,67.80
2018-02-24T17:59:28.570Z,68.30
2018-02-24T18:01:55.162Z,68.10
2018-02-24T18:04:21.789Z,68.20
2018-02-24T18:06:48.698Z,67.60
2018-02-24T18:09:15.260Z,67.60
2018-02-24T18:11:41.818Z,67.40
2018-02-24T18:14:08.351Z,67.40
2018-02-24T18:16:34.906Z,66.70
2018-02-24T18:19:01.478Z,66.60
2018-02-24T18:21:28.009Z,66.40
2018-02-24T18:23:54.583Z,66.70
2018-02-24T18:26:21.518Z,66.60
2018-02-24T18:28:48.054Z,66.60
2018-02-24T18:31:14.622Z,66.40
2018-02-24T18:33:41.221Z,66.40
2018-02-24T18:36:07.749Z,66.90
2018-02-24T18:38:34.370Z,66.90
2018-02-24T18:41:01.306Z,67.20
2018-02-24T18:43:27.881Z,67.20
2018-02-24T18:45:54.861Z,67.30
2018-02-24T18:48:21.481Z,67.30
2018-02-24T18:50:48.054Z,67.50
2018-02-24T18:53:14.633Z,67.30
2018-02-24T18:55:41.286Z,68.00
2018-02-24T18:58:07.850Z,67.70
2018-02-24T19:00:34.422Z,68.20
2018-02-24T19:03:01.035Z,68.10
2018-02-24T19:05:27.577Z,68.20
2018-02-24T19:07:54.203Z,67.50
2018-02-24T19:10:20.797Z,67.90
2018-02-24T19:12:47.338Z,67.90
2018-02-24T19:15:13.905Z,67.60
2018-02-24T19:17:40.532Z,67.20
2018-02-24T19:20:07.242Z,67.10
2018-02-24T19:22:33.836Z,66.30
2018-02-24T19:25:01.878Z,66.30
2018-02-24T19:27:28.418Z,66.00
2018-02-24T19:29:55.423Z,66.40
2018-02-24T19:32:22.058Z,66.90
2018-02-24T19:34:48.716Z,66.60
2018-02-24T19:37:15.414Z,66.50
2018-02-24T19:39:42.854Z,66.70
2018-02-24T19:42:09.538Z,66.60
2018-02-24T19:44:36.496Z,66.50
2018-02-24T19:47:03.062Z,66.50
2018-02-24T19:49:29.670Z,66.30
2018-02-24T19:51:56.631Z,66.50
2018-02-24T19:54:23.566Z,66.50
2018-02-24T19:56:50.092Z,66.50
2018-02-24T19:59:16.922Z,66.50
2018-02-24T20:01:43.527Z,67.00
2018-02-24T20:04:10.479Z,66.40
2018-02-24T20:06:38.326Z,67.00
2018-02-24T20:09:04.942Z,67.00
2018-02-24T20:11:31.537Z,66.60
2018-02-24T20:13:58.114Z,66.80
2018-02-24T20:16:25.658Z,67.00
2018-02-24T20:18:52.234Z,66.90
2018-02-24T20:21:18.886Z,67.60
2018-02-24T20:23:45.898Z,66.90
2018-02-24T20:26:12.729Z,66.90
2018-02-24T20:28:39.297Z,67.30
2018-02-24T20:31:05.877Z,67.40
2018-02-24T20:33:32.790Z,67.00
2018-02-24T20:36:00.407Z,67.00
2018-02-24T20:38:27.356Z,66.50
2018-02-24T20:40:54.267Z,66.40
2018-02-24T20:43:20.920Z,66.40
2018-02-24T20:45:47.526Z,66.70
2018-02-24T20:48:14.450Z,67.20
2018-02-24T20:50:41.398Z,67.20
2018-02-24T20:53:08.093Z,66.70
2018-02-24T20:55:36.031Z,67.30
2018-02-24T20:58:04.495Z,67.30
2018-02-24T21:00:31.027Z,66.80
2018-02-24T21:02:57.641Z,67.20
2018-02-24T21:05:24.620Z,67.30
2018-02-24T21:07:51.194Z,67.30
2018-02-24T21:10:18.583Z,67.90
2018-02-24T21:12:45.146Z,67.70
2018-02-24T21:15:11.718Z,68.00
2018-02-24T21:17:38.621Z,67.90
2018-02-24T21:20:05.249Z,67.90
2018-02-24T21:22:32.658Z,68.50
2018-02-24T21:24:59.254Z,68.20
2018-02-24T21:27:25.849Z,68.60
2018-02-24T21:29:52.798Z,68.70
2018-02-24T21:32:19.609Z,68.70
2018-02-24T21:34:46.301Z,68.60
2018-02-24T21:37:12.869Z,68.80
2018-02-24T21:39:39.449Z,68.90
2018-02-24T21:42:06.013Z,68.90
2018-02-24T21:44:32.580Z,69.50
2018-02-24T21:46:59.110Z,69.40
2018-02-24T21:49:25.677Z,68.90
2018-02-24T21:51:52.278Z,68.80
2018-02-24T21:54:18.819Z,68.70
2018-02-24T21:56:45.541Z,68.60
2018-02-24T21:59:12.471Z,68.90
2018-02-24T22:01:39.021Z,68.90
2018-02-24T22:04:05.659Z,68.40
2018-02-24T22:06:32.317Z,67.60
2018-02-24T22:08:58.866Z,67.40
2018-02-24T22:11:25.550Z,67.10
2018-02-24T22:13:52.202Z,66.30
2018-02-24T22:16:18.741Z,65.80
2018-02-24T22:18:45.680Z,66.60
2018-02-24T22:21:12.259Z,66.60
2018-02-24T22:23:38.811Z,66.90
2018-02-24T22:26:05.434Z,66.80
2018-02-24T22:28:32.168Z,66.30
2018-02-24T22:30:58.794Z,66.10
2018-02-24T22:33:25.361Z,66.00
2018-02-24T22:35:51.937Z,66.00
2018-02-24T22:38:18.853Z,66.20
2018-02-24T22:40:45.413Z,66.20
2018-02-24T22:43:12.010Z,66.30
2018-02-24T22:45:38.533Z,66.10
2018-02-24T22:48:11.619Z,66.70
2018-02-24T22:50:38.185Z,66.70
2018-02-24T22:53:05.081Z,66.90
2018-02-24T22:55:31.646Z,66.90
2018-02-24T22:57:58.206Z,66.60
2018-02-24T23:00:28.901Z,67.00
2018-02-24T23:02:55.545Z,67.00
2018-02-24T23:05:22.174Z,67.00
2018-02-24T23:07:49.074Z,67.10
2018-02-24T23:10:15.649Z,67.10
2018-02-24T23:12:42.622Z,67.80
2018-02-24T23:15:09.158Z,67.80
2018-02-24T23:17:35.734Z,67.60
2018-02-24T23:20:02.729Z,68.40
2018-02-24T23:22:29.258Z,68.40
2018-02-24T23:24:55.823Z,67.90
2018-02-24T23:27:22.389Z,68.20
2018-02-24T23:29:48.921Z,68.30
2018-02-24T23:32:15.477Z,68.10
2018-02-24T23:34:42.116Z,68.50
2018-02-24T23:37:08.666Z,68.50
2018-02-24T23:39:35.274Z,68.60
2018-02-24T23:42:02.246Z,68.70
2018-02-24T23:44:28.822Z,68.70
2018-02-24T23:46:55.379Z,68.90
2018-02-24T23:49:21.961Z,68.90
2018-02-24T23:51:48.867Z,68.70
2018-02-24T23:54:15.438Z,68.70
2018-02-24T23:56:42.006Z,68.70
2018-02-24T23:59:08.906Z,69.10
